Time;durP1;ratioP1;P1;durP2;ratioP2;P2;SDS_P1;SDS_P2;PMS_P1;PMS_P2;Temp;Humidity;BMP_temperature;BMP_pressure;BME280_temperature;BME280_humidity;BME280_pressure;Samples;Min_cycle;Max_cycle;Signal;HPM_P1;HPM_P2
2022/08/05 00:01:16;;;;;;;;;;;;;;;;;;5015801;28;20088;-72
2022/08/05 00:03:42;;;;;;;9.95;4.10;;;;;;;;;;5015461;28;19921;-72
2022/08/05 00:06:09;;;;;;;12.50;4.00;;;;;;;;;;5015845;28;20046;-72
2022/08/05 00:08:35;;;;;;;12.70;3.90;;;;;;;;;;5015488;28;20041;-73
2022/08/05 00:11:04;;;;;;;12.40;4.40;;;;;;;;;;5015713;28;20385;-73
2022/08/05 00:13:31;;;;;;;17.20;4.90;;;;;;;;;;5015826;28;20049;-72
2022/08/05 00:16:00;;;;;;;10.82;4.22;;;;;;;;;;5015669;28;20120;-74
2022/08/05 00:18:26;;;;;;;17.13;4.82;;;;;;;;;;5014838;28;20125;-72
2022/08/05 00:20:52;;;;;;;14.55;4.63;;;;;;;;;;4997994;28;20045;-72
2022/08/05 00:23:19;;;;;;;14.43;4.70;;;;;;;;;;5015749;28;20069;-72
2022/08/05 00:25:45;;;;;;;13.50;4.25;;;;;;;;;;5015295;28;20342;-72
2022/08/05 00:28:11;;;;;;;;;;;;;;;;;;5016091;28;20200;-72
2022/08/05 00:30:37;;;;;;;13.70;4.70;;;;;;;;;;5014896;28;20380;-72
2022/08/05 00:33:03;;;;;;;12.15;4.80;;;;;;;;;;5014812;28;20042;-73
2022/08/05 00:35:30;;;;;;;;;;;;;;;;;;5015298;28;20053;-72
2022/08/05 00:37:56;;;;;;;11.88;4.60;;;;;;;;;;5015381;28;19960;-72
2022/08/05 00:40:22;;;;;;;;;;;;;;;;;;5015124;28;20050;-72
2022/08/05 00:42:48;;;;;;;11.93;4.93;;;;;;;;;;5014967;28;19928;-72
2022/08/05 00:45:14;;;;;;;13.25;5.40;;;;;;;;;;5015459;28;20054;-72
2022/08/05 00:47:40;;;;;;;14.07;4.60;;;;;;;;;;5015420;28;20056;-72
2022/08/05 00:50:06;;;;;;;16.10;5.40;;;;;;;;;;5014573;28;20045;-72
2022/08/05 00:52:32;;;;;;;12.38;5.10;;;;;;;;;;5014546;28;20061;-72
2022/08/05 00:54:58;;;;;;;;;;;;;;;;;;5014885;28;20089;-71
2022/08/05 00:57:25;;;;;;;15.32;5.07;;;;;;;;;;5014394;28;19921;-72
2022/08/05 00:59:51;;;;;;;12.70;5.13;;;;;;;;;;5014447;28;20042;-72
2022/08/05 01:02:17;;;;;;;15.63;4.85;;;;;;;;;;4996937;28;20132;-72
2022/08/05 01:04:43;;;;;;;;;;;;;;;;;;5015249;28;20050;-72
2022/08/05 01:07:09;;;;;;;12.75;4.30;;;;;;;;;;5013984;28;19936;-72
2022/08/05 01:09:35;;;;;;;13.02;4.97;;;;;;;;;;5014144;28;20188;-72
2022/08/05 01:12:07;;;;;;;13.48;4.78;;;;;;;;;;5014206;28;20108;-71
2022/08/05 01:14:57;;;;;;;14.35;4.75;;;;;;;;;;5014153;28;20071;-72
2022/08/05 01:17:29;;;;;;;13.38;4.55;;;;;;;;;;5004112;28;20093;-71
2022/08/05 01:20:03;;;;;;;11.20;4.20;;;;;;;;;;5014141;28;20052;-71
2022/08/05 01:22:47;;;;;;;13.57;4.18;;;;;;;;;;5014015;28;20054;-71
2022/08/05 01:25:27;;;;;;;12.13;4.85;;;;;;;;;;5014734;28;20053;-72
2022/08/05 01:27:53;;;;;;;12.48;5.10;;;;;;;;;;5013912;28;20089;-72
2022/08/05 01:30:20;;;;;;;12.63;4.70;;;;;;;;;;5013344;28;20100;-72
2022/08/05 01:32:50;;;;;;;15.32;4.80;;;;;;;;;;5014116;28;20048;-72
2022/08/05 01:35:18;;;;;;;13.43;4.57;;;;;;;;;;5014098;28;20107;-72
2022/08/05 01:37:52;;;;;;;14.55;4.97;;;;;;;;;;5013640;28;20048;-72
2022/08/05 01:40:19;;;;;;;16.63;4.72;;;;;;;;;;5013718;28;20133;-72
2022/08/05 01:42:46;;;;;;;12.63;4.50;;;;;;;;;;5013805;28;20089;-72
2022/08/05 01:45:13;;;;;;;14.88;4.50;;;;;;;;;;5014484;28;20352;-72
2022/08/05 01:47:39;;;;;;;12.57;4.72;;;;;;;;;;4996729;28;20132;-71
2022/08/05 01:50:08;;;;;;;14.13;4.47;;;;;;;;;;5013713;28;20050;-73
2022/08/05 01:52:36;;;;;;;11.88;4.30;;;;;;;;;;5013214;28;20054;-72
2022/08/05 01:55:04;;;;;;;15.73;5.40;;;;;;;;;;5014082;28;20049;-71
2022/08/05 01:57:32;;;;;;;12.75;4.10;;;;;;;;;;5013583;28;20095;-71
2022/08/05 01:59:59;;;;;;;12.95;4.75;;;;;;;;;;5013325;28;20485;-71
2022/08/05 02:02:26;;;;;;;12.88;4.57;;;;;;;;;;5014046;28;20042;-72
2022/08/05 02:04:57;;;;;;;13.70;5.13;;;;;;;;;;5013472;28;20058;-72
2022/08/05 02:07:24;;;;;;;12.98;4.47;;;;;;;;;;5013348;28;20061;-72
2022/08/05 02:09:50;;;;;;;14.75;4.85;;;;;;;;;;5014327;28;20053;-72
2022/08/05 02:12:19;;;;;;;12.73;4.95;;;;;;;;;;5013422;28;20056;-72
2022/08/05 02:15:07;;;;;;;13.50;5.13;;;;;;;;;;5013452;28;20085;-71
2022/08/05 02:17:57;;;;;;;11.52;5.30;;;;;;;;;;5013991;28;20042;-72
2022/08/05 02:20:24;;;;;;;11.83;5.40;;;;;;;;;;5013460;28;20144;-72
2022/08/05 02:22:55;;;;;;;14.65;5.97;;;;;;;;;;5013530;28;20784;-71
2022/08/05 02:25:24;;;;;;;16.25;5.70;;;;;;;;;;5013890;28;20049;-72
2022/08/05 02:27:52;;;;;;;14.65;5.20;;;;;;;;;;5013289;28;20434;-71
2022/08/05 02:30:18;;;;;;;14.95;5.35;;;;;;;;;;5013352;28;20068;-72
2022/08/05 02:32:47;;;;;;;13.93;4.93;;;;;;;;;;5013220;28;20050;-72
2022/08/05 02:35:15;;;;;;;14.43;5.50;;;;;;;;;;5013328;28;20054;-71
2022/08/05 02:37:42;;;;;;;13.40;5.18;;;;;;;;;;5013698;28;20048;-71
2022/08/05 02:40:09;;;;;;;13.68;5.28;;;;;;;;;;5014181;28;20057;-71
2022/08/05 02:42:35;;;;;;;12.05;4.95;;;;;;;;;;5016847;28;20042;-71
2022/08/05 02:45:02;;;;;;;14.57;5.57;;;;;;;;;;5016904;28;20056;-71
2022/08/05 02:47:30;;;;;;;14.45;4.85;;;;;;;;;;5016707;28;20048;-71
2022/08/05 02:49:56;;;;;;;16.17;5.22;;;;;;;;;;4999325;28;20093;-71
2022/08/05 02:52:22;;;;;;;;;;;;;;;;;;5017939;28;20054;-71
2022/08/05 02:54:49;;;;;;;13.95;5.47;;;;;;;;;;5016571;28;20383;-71
2022/08/05 02:57:17;;;;;;;13.05;5.60;;;;;;;;;;4999467;28;20096;-71
2022/08/05 02:59:47;;;;;;;17.15;5.80;;;;;;;;;;5017051;28;20042;-71
2022/08/05 03:02:16;;;;;;;13.63;5.70;;;;;;;;;;5016628;28;20129;-71
2022/08/05 03:04:43;;;;;;;13.05;5.45;;;;;;;;;;5016650;28;20069;-71
2022/08/05 03:07:09;;;;;;;15.90;6.18;;;;;;;;;;4999624;28;20432;-71
2022/08/05 03:09:35;;;;;;;;;;;;;;;;;;5016688;28;20053;-71
2022/08/05 03:12:01;;;;;;;15.30;6.30;;;;;;;;;;5016428;28;19921;-72
2022/08/05 03:14:27;;;;;;;12.75;6.05;;;;;;;;;;5016249;28;20081;-72
2022/08/05 03:16:53;;;;;;;16.88;6.72;;;;;;;;;;5016425;28;20049;-72
2022/08/05 03:19:19;;;;;;;;;;;;;;;;;;5016745;28;20133;-72
2022/08/05 03:21:45;;;;;;;13.63;6.45;;;;;;;;;;5016175;28;19961;-71
2022/08/05 03:24:11;;;;;;;;;;;;;;;;;;4999188;28;20460;-71
2022/08/05 03:26:37;;;;;;;13.70;6.38;;;;;;;;;;5016641;28;20004;-71
2022/08/05 03:29:04;;;;;;;18.27;6.40;;;;;;;;;;5016034;28;20089;-71
2022/08/05 03:31:30;;;;;;;16.70;6.93;;;;;;;;;;5015973;28;20057;-71
2022/08/05 03:33:57;;;;;;;18.23;7.22;;;;;;;;;;4998670;28;20050;-71
2022/08/05 03:36:23;;;;;;;14.48;7.35;;;;;;;;;;5016003;28;20053;-71
2022/08/05 03:38:49;;;;;;;15.50;6.80;;;;;;;;;;5016655;28;20044;-71
2022/08/05 03:41:16;;;;;;;15.25;6.70;;;;;;;;;;5016125;28;20116;-71
2022/08/05 03:43:43;;;;;;;16.45;6.43;;;;;;;;;;4998652;28;20108;-71
2022/08/05 03:46:08;;;;;;;;;;;;;;;;;;5016151;28;20103;-71
2022/08/05 03:48:34;;;;;;;13.55;6.20;;;;;;;;;;5015201;28;19921;-71
2022/08/05 03:51:16;;;;;;;15.18;6.55;;;;;;;;;;5016304;28;20367;-71
2022/08/05 03:53:55;;;;;;;15.10;6.32;;;;;;;;;;5015008;28;20474;-71
2022/08/05 03:56:26;;;;;;;14.32;6.25;;;;;;;;;;5015514;28;20053;-72
2022/08/05 03:58:53;;;;;;;13.40;5.80;;;;;;;;;;5015393;28;20049;-72
2022/08/05 04:01:20;;;;;;;14.27;6.57;;;;;;;;;;5014439;28;20557;-71
2022/08/05 04:03:48;;;;;;;13.00;6.22;;;;;;;;;;4997178;28;20398;-71
2022/08/05 04:06:15;;;;;;;13.95;6.20;;;;;;;;;;5014480;28;20398;-71
2022/08/05 04:08:42;;;;;;;12.30;5.95;;;;;;;;;;5014637;28;20042;-71
2022/08/05 04:11:09;;;;;;;12.50;5.40;;;;;;;;;;5014478;28;20056;-71
2022/08/05 04:13:38;;;;;;;13.07;5.25;;;;;;;;;;5013762;28;20077;-71
2022/08/05 04:16:08;;;;;;;13.20;5.30;;;;;;;;;;5014185;28;20050;-71
2022/08/05 04:18:34;;;;;;;15.40;5.32;;;;;;;;;;5013573;28;20462;-71
2022/08/05 04:21:01;;;;;;;13.98;5.55;;;;;;;;;;5013842;28;20486;-71
2022/08/05 04:23:27;;;;;;;14.50;5.43;;;;;;;;;;5012933;28;20493;-71
2022/08/05 04:25:53;;;;;;;14.13;4.97;;;;;;;;;;5013921;28;20072;-71
2022/08/05 04:28:19;;;;;;;;;;;;;;;;;;5013660;28;20085;-71
2022/08/05 04:30:46;;;;;;;13.35;5.20;;;;;;;;;;5013365;28;20017;-71
2022/08/05 04:33:14;;;;;;;15.48;5.57;;;;;;;;;;5013881;28;20045;-71
2022/08/05 04:35:40;;;;;;;12.40;5.30;;;;;;;;;;5013347;28;20053;-71
2022/08/05 04:38:09;;;;;;;13.90;5.30;;;;;;;;;;5013435;28;20559;-71
2022/08/05 04:40:36;;;;;;;11.10;5.40;;;;;;;;;;5013248;28;20414;-71
2022/08/05 04:43:03;;;;;;;13.13;5.40;;;;;;;;;;5013806;28;20061;-71
2022/08/05 04:45:29;;;;;;;14.75;5.57;;;;;;;;;;5013187;28;20049;-71
2022/08/05 04:48:11;;;;;;;12.93;5.35;;;;;;;;;;5013163;28;20098;-72
2022/08/05 04:50:41;;;;;;;13.90;5.40;;;;;;;;;;5012420;28;20050;-71
2022/08/05 04:53:08;;;;;;;14.10;5.65;;;;;;;;;;5013167;28;20474;-71
2022/08/05 04:55:35;;;;;;;15.48;5.95;;;;;;;;;;5013042;28;20060;-71
2022/08/05 04:58:01;;;;;;;15.55;6.07;;;;;;;;;;5012650;28;20045;-71
2022/08/05 05:00:27;;;;;;;17.00;5.22;;;;;;;;;;5012511;28;20042;-71
2022/08/05 05:02:53;;;;;;;12.48;5.53;;;;;;;;;;5012460;28;20091;-71
2022/08/05 05:05:19;;;;;;;10.65;5.57;;;;;;;;;;4994936;28;20053;-72
2022/08/05 05:07:45;;;;;;;14.55;6.05;;;;;;;;;;5013215;28;20481;-71
2022/08/05 05:10:11;;;;;;;12.48;6.00;;;;;;;;;;5012819;28;20533;-71
2022/08/05 05:12:38;;;;;;;14.52;6.55;;;;;;;;;;5012632;28;20046;-72
2022/08/05 05:15:04;;;;;;;13.75;5.97;;;;;;;;;;5012401;28;20046;-72
2022/08/05 05:17:41;;;;;;;12.48;6.30;;;;;;;;;;4994973;28;20058;-71
2022/08/05 05:20:11;;;;;;;14.07;6.50;;;;;;;;;;5013150;28;20053;-71
2022/08/05 05:22:37;;;;;;;13.35;6.30;;;;;;;;;;5012543;28;20057;-71
2022/08/05 05:25:04;;;;;;;11.93;5.70;;;;;;;;;;5012386;28;20125;-71
2022/08/05 05:27:31;;;;;;;13.13;5.88;;;;;;;;;;5012422;28;20455;-71
2022/08/05 05:29:57;;;;;;;11.98;5.43;;;;;;;;;;4994689;28;20045;-72
2022/08/05 05:32:23;;;;;;;;;;;;;;;;;;4995531;28;20051;-71
2022/08/05 05:34:49;;;;;;;11.45;5.47;;;;;;;;;;5012447;28;20331;-72
2022/08/05 05:37:15;;;;;;;;;;;;;;;;;;5012856;28;20188;-71
2022/08/05 05:39:41;;;;;;;11.63;5.53;;;;;;;;;;5012404;28;19972;-72
2022/08/05 05:42:07;;;;;;;11.43;5.53;;;;;;;;;;5012343;28;20050;-71
2022/08/05 05:44:33;;;;;;;;;;;;;;;;;;5012891;28;20429;-71
2022/08/05 05:46:59;;;;;;;11.38;5.25;;;;;;;;;;5012571;28;19921;-72
2022/08/05 05:49:26;;;;;;;11.15;5.53;;;;;;;;;;5012271;28;20482;-71
2022/08/05 05:51:52;;;;;;;11.32;5.45;;;;;;;;;;5012678;28;20115;-72
2022/08/05 05:54:18;;;;;;;13.27;5.63;;;;;;;;;;5011963;28;20474;-72
2022/08/05 05:56:44;;;;;;;;;;;;;;;;;;5012458;28;20497;-72
2022/08/05 05:59:10;;;;;;;12.07;5.70;;;;;;;;;;5012132;28;19925;-72
2022/08/05 06:01:38;;;;;;;13.02;5.65;;;;;;;;;;4995034;28;20138;-72
2022/08/05 06:04:05;;;;;;;11.75;5.25;;;;;;;;;;5012118;28;20493;-71
2022/08/05 06:06:31;;;;;;;11.73;5.43;;;;;;;;;;5012519;28;20061;-72
2022/08/05 06:08:58;;;;;;;10.63;5.38;;;;;;;;;;4994641;28;20049;-72
2022/08/05 06:11:24;;;;;;;11.52;5.43;;;;;;;;;;5011990;28;20386;-71
2022/08/05 06:13:50;;;;;;;;;;;;;;;;;;5011575;28;20519;-72
2022/08/05 06:16:16;;;;;;;11.63;5.00;;;;;;;;;;5014550;28;19921;-71
2022/08/05 06:18:42;;;;;;;;;;;;;;;;;;4999269;28;20080;-71
2022/08/05 06:21:08;;;;;;;11.02;4.90;;;;;;;;;;5015281;28;19951;-72
2022/08/05 06:23:34;;;;;;;9.88;4.70;;;;;;;;;;5014896;28;20528;-72
2022/08/05 06:26:01;;;;;;;10.40;4.50;;;;;;;;;;5015420;28;20050;-72
2022/08/05 06:28:27;;;;;;;12.02;4.10;;;;;;;;;;5015510;28;20038;-72
2022/08/05 06:30:53;;;;;;;10.18;3.97;;;;;;;;;;5015580;28;20050;-72
2022/08/05 06:33:19;;;;;;;10.73;3.90;;;;;;;;;;5015645;28;20046;-72
2022/08/05 06:35:45;;;;;;;11.35;3.92;;;;;;;;;;5015722;28;20046;-72
2022/08/05 06:38:11;;;;;;;9.52;4.07;;;;;;;;;;5016399;28;20061;-72
2022/08/05 06:40:37;;;;;;;10.07;3.92;;;;;;;;;;4998179;28;20046;-72
2022/08/05 06:43:04;;;;;;;9.80;3.55;;;;;;;;;;5015921;28;20143;-72
2022/08/05 06:45:30;;;;;;;10.10;4.00;;;;;;;;;;5015403;28;20054;-71
2022/08/05 06:47:56;;;;;;;9.60;3.00;;;;;;;;;;5015366;28;20053;-71
2022/08/05 06:50:22;;;;;;;12.38;3.53;;;;;;;;;;5015529;28;20096;-72
2022/08/05 06:52:48;;;;;;;;;;;;;;;;;;5015754;28;20466;-72
2022/08/05 06:55:14;;;;;;;9.25;3.15;;;;;;;;;;5015598;28;20027;-73
2022/08/05 06:57:40;;;;;;;;;;;;;;;;;;5015962;28;20046;-72
2022/08/05 07:00:06;;;;;;;9.75;2.88;;;;;;;;;;5015271;28;20016;-72
2022/08/05 07:02:32;;;;;;;7.60;2.80;;;;;;;;;;5015462;28;20046;-71
2022/08/05 07:04:58;;;;;;;;;;;;;;;;;;4997942;28;20556;-72
2022/08/05 07:07:24;;;;;;;7.07;2.67;;;;;;;;;;5015297;28;19926;-74
2022/08/05 07:09:50;;;;;;;7.82;3.05;;;;;;;;;;5015737;28;20490;-72
2022/08/05 07:17:49;;;;;;;9.45;2.70;;;;;;;;;;5015679;28;20048;-74
2022/08/05 07:20:15;;;;;;;;;;;;;;;;;;4998162;28;20057;-72
2022/08/05 07:22:41;;;;;;;8.07;2.35;;;;;;;;;;5014647;28;19921;-72
2022/08/05 07:25:07;;;;;;;9.27;2.60;;;;;;;;;;5014698;28;20104;-75
2022/08/05 07:27:33;;;;;;;;;;;;;;;;;;5013555;28;20123;-72
2022/08/05 07:29:59;;;;;;;7.55;2.40;;;;;;;;;;5014490;28;20324;-73
2022/08/05 07:32:25;;;;;;;8.30;2.85;;;;;;;;;;5015221;28;20081;-73
2022/08/05 07:34:54;;;;;;;7.70;2.22;;;;;;;;;;5015015;28;20041;-73
2022/08/05 07:37:20;;;;;;;;;;;;;;;;;;5014900;28;20058;-72
2022/08/05 07:39:47;;;;;;;6.03;2.40;;;;;;;;;;5029498;28;19974;-72
2022/08/05 07:42:13;;;;;;;5.72;2.13;;;;;;;;;;5014167;28;20042;-73
2022/08/05 07:44:39;;;;;;;;;;;;;;;;;;5014400;28;20466;-72
2022/08/05 07:47:05;;;;;;;6.95;2.30;;;;;;;;;;5014437;28;20019;-72
2022/08/05 07:49:34;;;;;;;6.13;2.20;;;;;;;;;;5013847;28;20077;-72
2022/08/05 07:52:00;;;;;;;8.73;2.17;;;;;;;;;;4996285;28;20069;-72
2022/08/05 07:54:26;;;;;;;6.75;2.15;;;;;;;;;;5013810;28;20405;-72
2022/08/05 07:56:52;;;;;;;;;;;;;;;;;;5014623;28;20053;-72
2022/08/05 07:59:18;;;;;;;5.72;1.85;;;;;;;;;;5014148;28;20404;-74
2022/08/05 08:01:44;;;;;;;5.75;2.10;;;;;;;;;;5014706;28;20129;-77
2022/08/05 08:04:10;;;;;;;;;;;;;;;;;;4981574;28;20061;-91
2022/08/05 08:06:36;;;;;;;7.80;1.80;;;;;;;;;;5013826;28;19922;-83
2022/08/05 08:09:02;;;;;;;6.18;1.90;;;;;;;;;;5013658;28;20042;-81
2022/08/05 08:11:28;;;;;;;;;;;;;;;;;;5015022;28;20548;-79
2022/08/05 08:13:54;;;;;;;8.60;2.05;;;;;;;;;;5014252;28;20008;-87
2022/08/05 08:16:20;;;;;;;;;;;;;;;;;;5014818;28;20375;-72
2022/08/05 08:18:46;;;;;;;6.18;1.92;;;;;;;;;;5013849;28;20043;-76
2022/08/05 08:21:12;;;;;;;10.82;2.10;;;;;;;;;;4995498;28;20057;-75
2022/08/05 08:23:38;;;;;;;8.77;2.20;;;;;;;;;;5014330;28;20041;-76
2022/08/05 08:26:04;;;;;;;6.45;1.90;;;;;;;;;;5014246;28;20053;-72
2022/08/05 08:28:30;;;;;;;;;;;;;;;;;;4996427;28;20520;-86
2022/08/05 08:30:56;;;;;;;8.60;2.10;;;;;;;;;;5014525;28;20117;-81
2022/08/05 08:33:22;;;;;;;;;;;;;;;;;;5014459;28;20053;-80
2022/08/05 08:35:48;;;;;;;7.18;2.38;;;;;;;;;;5013996;28;19922;-81
2022/08/05 08:38:15;;;;;;;5.82;2.00;;;;;;;;;;5013660;28;20046;-74
2022/08/05 08:40:41;;;;;;;7.07;1.88;;;;;;;;;;5014026;28;20046;-74
2022/08/05 08:43:11;;;;;;;8.45;1.98;;;;;;;;;;5013925;28;20556;-77
2022/08/05 08:45:37;;;;;;;8.60;2.00;;;;;;;;;;5014193;28;20042;-72
2022/08/05 08:48:05;;;;;;;7.95;2.05;;;;;;;;;;4996309;28;20084;-67
2022/08/05 08:50:32;;;;;;;7.28;2.00;;;;;;;;;;5013487;28;20052;-69
2022/08/05 08:53:04;;;;;;;6.82;1.73;;;;;;;;;;5013613;28;20061;-71
2022/08/05 08:55:30;;;;;;;5.75;1.70;;;;;;;;;;5013269;28;20410;-73
2022/08/05 08:57:57;;;;;;;10.88;2.10;;;;;;;;;;5013035;28;20046;-67
2022/08/05 09:00:24;;;;;;;7.50;2.70;;;;;;;;;;4996232;28;20045;-71
2022/08/05 09:02:51;;;;;;;;;;;;;;;;;;5013486;28;20060;-66
2022/08/05 09:05:17;;;;;;;6.32;1.70;;;;;;;;;;5012901;28;20251;-72
2022/08/05 09:07:43;;;;;;;3.90;1.60;;;;;;;;;;5012936;28;20516;-71
2022/08/05 09:10:09;;;;;;;;;;;;;;;;;;5013481;28;20050;-76
2022/08/05 09:12:35;;;;;;;5.47;2.00;;;;;;;;;;5012916;28;19928;-72
2022/08/05 09:15:01;;;;;;;;;;;;;;;;;;4996844;28;20397;-68
2022/08/05 09:17:27;;;;;;;8.93;2.20;;;;;;;;;;5013500;28;19921;-65
2022/08/05 09:19:53;;;;;;;4.32;1.70;;;;;;;;;;4996555;28;20050;-69
2022/08/05 09:22:19;;;;;;;;;;;;;;;;;;5013722;28;20052;-65
2022/08/05 09:24:56;;;;;;;6.55;1.80;;;;;;;;;;5013223;28;20279;-72
2022/08/05 09:27:30;;;;;;;4.03;1.60;;;;;;;;;;5013660;28;20064;-70
2022/08/05 09:29:58;;;;;;;5.13;1.50;;;;;;;;;;5012658;28;20046;-69
2022/08/05 09:32:33;;;;;;;4.55;1.52;;;;;;;;;;4995418;28;20045;-80
2022/08/05 09:35:01;;;;;;;5.57;1.60;;;;;;;;;;5013427;28;20046;-76
2022/08/05 09:37:28;;;;;;;7.45;1.75;;;;;;;;;;5012584;28;20049;-70
2022/08/05 09:39:54;;;;;;;6.95;1.75;;;;;;;;;;5012776;28;20054;-71
2022/08/05 09:42:20;;;;;;;;;;;;;;;;;;4995223;28;20092;-67
2022/08/05 09:44:50;;;;;;;5.35;1.50;;;;;;;;;;5013135;28;20384;-67
2022/08/05 09:47:20;;;;;;;5.53;1.85;;;;;;;;;;5013147;28;20442;-66
2022/08/05 09:49:48;;;;;;;6.63;1.65;;;;;;;;;;5012323;28;20054;-72
2022/08/05 09:52:23;;;;;;;4.97;1.65;;;;;;;;;;5013121;28;20104;-71
2022/08/05 09:55:00;;;;;;;6.95;1.88;;;;;;;;;;5013008;28;20129;-69
2022/08/05 09:57:39;;;;;;;8.48;1.40;;;;;;;;;;5013388;28;20046;-77
2022/08/05 10:00:06;;;;;;;3.28;1.35;;;;;;;;;;5014818;28;20097;-78
2022/08/05 10:02:32;;;;;;;5.82;1.48;;;;;;;;;;5013279;28;20139;-81
2022/08/05 10:05:10;;;;;;;7.15;1.50;;;;;;;;;;5012393;28;20050;-68
2022/08/05 10:07:43;;;;;;;6.10;1.50;;;;;;;;;;5011980;28;20457;-73
2022/08/05 10:10:09;;;;;;;7.03;1.70;;;;;;;;;;5011962;28;20046;-68
2022/08/05 10:12:41;;;;;;;6.45;1.80;;;;;;;;;;5012018;28;20482;-74
2022/08/05 10:15:14;;;;;;;5.07;1.58;;;;;;;;;;5012090;28;20389;-73
2022/08/05 10:17:40;;;;;;;3.95;1.40;;;;;;;;;;5012109;28;20049;-78
2022/08/05 10:20:06;;;;;;;3.80;1.63;;;;;;;;;;5012801;28;20045;-79
2022/08/05 10:22:33;;;;;;;3.78;1.33;;;;;;;;;;5012371;28;20568;-68
2022/08/05 10:24:59;;;;;;;3.20;1.30;;;;;;;;;;5012467;28;20494;-69
2022/08/05 10:27:25;;;;;;;;;;;;;;;;;;5012986;28;20566;-81
2022/08/05 10:29:51;;;;;;;4.20;1.20;;;;;;;;;;5011653;28;20024;-79
2022/08/05 10:32:17;;;;;;;;;;;;;;;;;;5012532;28;20133;-77
2022/08/05 10:34:44;;;;;;;5.45;1.20;;;;;;;;;;5012743;28;19967;-70
2022/08/05 10:37:12;;;;;;;2.25;1.08;;;;;;;;;;5013595;28;20049;-66
2022/08/05 10:39:39;;;;;;;4.35;1.27;;;;;;;;;;5012693;28;20192;-72
2022/08/05 10:42:09;;;;;;;5.05;1.38;;;;;;;;;;5013549;28;20136;-68
2022/08/05 10:44:35;;;;;;;3.83;1.20;;;;;;;;;;5013179;28;20053;-71
2022/08/05 10:47:09;;;;;;;2.97;1.08;;;;;;;;;;5012815;28;20256;-69
2022/08/05 10:49:35;;;;;;;4.63;1.20;;;;;;;;;;5012545;28;20097;-75
2022/08/05 10:52:01;;;;;;;;;;;;;;;;;;5013172;28;20474;-66
2022/08/05 10:54:46;;;;;;;5.25;1.15;;;;;;;;;;5012915;28;19928;-71
2022/08/05 10:57:12;;;;;;;3.35;0.98;;;;;;;;;;5012941;28;20473;-78
2022/08/05 10:59:38;;;;;;;2.75;1.10;;;;;;;;;;5012765;28;20048;-73
2022/08/05 11:02:06;;;;;;;;;;;;;;;;;;5014982;28;20587;-71
2022/08/05 11:04:41;;;;;;;3.15;0.98;;;;;;;;;;5016647;28;19922;-63
2022/08/05 11:07:10;;;;;;;4.13;1.25;;;;;;;;;;5015923;28;20053;-70
2022/08/05 11:09:36;;;;;;;3.95;1.08;;;;;;;;;;4997649;28;20053;-70
2022/08/05 11:12:02;;;;;;;;;;;;;;;;;;5016484;28;20487;-79
2022/08/05 11:14:30;;;;;;;3.28;1.00;;;;;;;;;;5015112;28;19932;-74
2022/08/05 11:17:14;;;;;;;3.40;0.90;;;;;;;;;;5015159;28;20046;-73
2022/08/05 11:19:47;;;;;;;2.85;1.17;;;;;;;;;;5014976;28;20049;-81
2022/08/05 11:22:32;;;;;;;6.07;1.48;;;;;;;;;;5014667;28;20056;-78
2022/08/05 11:25:17;;;;;;;4.65;1.20;;;;;;;;;;5014977;28;20056;-73
2022/08/05 11:27:43;;;;;;;4.97;1.30;;;;;;;;;;5015704;28;20088;-65
2022/08/05 11:30:09;;;;;;;;;;;;;;;;;;5016140;28;20057;-74
2022/08/05 11:32:38;;;;;;;3.13;1.10;;;;;;;;;;5015666;28;19991;-73
2022/08/05 11:35:04;;;;;;;5.85;1.55;;;;;;;;;;5015619;28;20046;-62
2022/08/05 11:37:40;;;;;;;5.15;1.65;;;;;;;;;;5015777;28;20050;-73
2022/08/05 11:40:06;;;;;;;5.40;1.52;;;;;;;;;;5015754;28;20057;-72
2022/08/05 11:42:33;;;;;;;8.25;1.70;;;;;;;;;;5014440;28;20482;-71
2022/08/05 11:45:04;;;;;;;4.43;1.35;;;;;;;;;;5015279;28;20050;-67
2022/08/05 11:47:32;;;;;;;3.63;1.30;;;;;;;;;;5014337;28;20136;-65
2022/08/05 11:49:59;;;;;;;3.20;1.30;;;;;;;;;;5015833;28;20096;-70
2022/08/05 11:52:26;;;;;;;3.22;1.20;;;;;;;;;;4997705;28;20149;-69
2022/08/05 11:54:53;;;;;;;4.50;1.40;;;;;;;;;;5015299;28;20057;-70
2022/08/05 11:57:19;;;;;;;4.28;1.30;;;;;;;;;;4997871;28;20053;-65
2022/08/05 11:59:45;;;;;;;;;;;;;;;;;;5016051;28;20077;-67
2022/08/05 12:02:11;;;;;;;4.03;1.10;;;;;;;;;;5015050;28;20309;-75
2022/08/05 12:04:37;;;;;;;;;;;;;;;;;;5014680;28;20100;-80
2022/08/05 12:07:03;;;;;;;4.53;1.38;;;;;;;;;;5014208;28;20324;-74
2022/08/05 12:09:31;;;;;;;5.03;1.25;;;;;;;;;;5014318;28;20042;-70
2022/08/05 12:11:57;;;;;;;6.53;1.30;;;;;;;;;;5014351;28;20049;-68
2022/08/05 12:14:24;;;;;;;6.68;1.85;;;;;;;;;;5014097;28;20161;-73
2022/08/05 12:16:50;;;;;;;6.22;1.52;;;;;;;;;;5014887;28;20111;-75
2022/08/05 12:19:17;;;;;;;4.80;1.23;;;;;;;;;;5014218;28;20050;-66
2022/08/05 12:21:45;;;;;;;3.28;1.20;;;;;;;;;;5014197;28;20176;-66
2022/08/05 12:24:18;;;;;;;8.20;1.45;;;;;;;;;;5014069;28;20050;-73
2022/08/05 12:26:49;;;;;;;5.07;1.42;;;;;;;;;;5013655;28;20057;-69
2022/08/05 12:29:15;;;;;;;3.72;1.45;;;;;;;;;;5013422;28;20046;-73
2022/08/05 12:31:41;;;;;;;;;;;;;;;;;;5014484;28;20057;-67
2022/08/05 12:34:08;;;;;;;3.15;1.05;;;;;;;;;;5029653;28;19921;-76
2022/08/05 12:36:35;;;;;;;4.63;1.30;;;;;;;;;;5013757;28;20081;-81
2022/08/05 12:39:03;;;;;;;4.53;1.30;;;;;;;;;;5014569;28;20057;-66
2022/08/05 12:41:32;;;;;;;6.70;1.25;;;;;;;;;;5014331;28;20050;-70
2022/08/05 12:44:00;;;;;;;9.02;1.60;;;;;;;;;;5014028;28;20069;-77
2022/08/05 12:46:28;;;;;;;6.22;1.50;;;;;;;;;;5013839;28;20136;-85
2022/08/05 12:49:07;;;;;;;5.72;1.50;;;;;;;;;;4995788;28;20082;-68
2022/08/05 12:51:43;;;;;;;4.43;1.50;;;;;;;;;;4996643;28;20050;-70
2022/08/05 12:54:09;;;;;;;4.32;1.45;;;;;;;;;;5013264;28;20140;-72
2022/08/05 12:56:41;;;;;;;9.02;2.00;;;;;;;;;;5013201;28;20064;-72
2022/08/05 12:59:21;;;;;;;5.78;1.58;;;;;;;;;;4996221;28;20198;-75
2022/08/05 13:01:56;;;;;;;4.20;1.30;;;;;;;;;;5014281;28;20116;-66
2022/08/05 13:04:25;;;;;;;3.20;1.20;;;;;;;;;;5013607;28;20125;-70
2022/08/05 13:06:51;;;;;;;6.18;1.33;;;;;;;;;;5013852;28;20489;-66
2022/08/05 13:09:17;;;;;;;3.75;1.20;;;;;;;;;;5013818;28;20041;-64
2022/08/05 13:11:43;;;;;;;;;;;;;;;;;;5013345;28;20049;-72
2022/08/05 13:14:16;;;;;;;9.50;1.52;;;;;;;;;;5012493;28;19991;-71
2022/08/05 13:16:50;;;;;;;5.22;1.38;;;;;;;;;;5012988;28;20465;-81
2022/08/05 13:19:16;;;;;;;6.07;1.65;;;;;;;;;;5013175;28;20042;-69
2022/08/05 13:21:45;;;;;;;5.38;1.40;;;;;;;;;;5012860;28;20045;-78
2022/08/05 13:24:11;;;;;;;6.10;1.35;;;;;;;;;;5012909;28;20050;-75
2022/08/05 13:26:37;;;;;;;;;;;;;;;;;;5013420;28;20041;-77
2022/08/05 13:29:04;;;;;;;3.70;1.38;;;;;;;;;;5013192;28;20238;-66
2022/08/05 13:31:30;;;;;;;6.07;1.63;;;;;;;;;;5012566;28;20177;-71
2022/08/05 13:33:56;;;;;;;3.17;1.17;;;;;;;;;;5012821;28;20104;-73
2022/08/05 13:36:22;;;;;;;;;;;;;;;;;;5013309;28;20049;-71
2022/08/05 13:38:49;;;;;;;4.38;1.20;;;;;;;;;;5012645;28;19921;-73
2022/08/05 13:41:15;;;;;;;;;;;;;;;;;;5012977;28;20042;-74
2022/08/05 13:43:43;;;;;;;3.60;1.30;;;;;;;;;;5012655;28;19932;-66
2022/08/05 13:46:10;;;;;;;3.92;1.20;;;;;;;;;;5012474;28;20057;-74
2022/08/05 13:48:36;;;;;;;3.38;1.42;;;;;;;;;;5012390;28;20128;-73
2022/08/05 13:51:10;;;;;;;4.55;1.40;;;;;;;;;;5012412;28;20486;-77
2022/08/05 13:53:36;;;;;;;5.65;1.30;;;;;;;;;;5013035;28;20053;-71
2022/08/05 13:56:02;;;;;;;;;;;;;;;;;;5012860;28;20335;-73
2022/08/05 13:58:28;;;;;;;8.98;1.58;;;;;;;;;;5012984;28;19975;-66
2022/08/05 14:00:55;;;;;;;4.32;1.30;;;;;;;;;;5013031;28;20057;-67
2022/08/05 14:03:21;;;;;;;9.77;1.80;;;;;;;;;;5012414;28;20449;-69
2022/08/05 14:05:47;;;;;;;11.05;1.77;;;;;;;;;;5012742;28;20050;-66
2022/08/05 14:08:13;;;;;;;;;;;;;;;;;;5012940;28;20096;-69
2022/08/05 14:10:39;;;;;;;11.20;2.03;;;;;;;;;;4994992;28;19921;-71
2022/08/05 14:13:08;;;;;;;9.75;1.90;;;;;;;;;;4995234;28;20050;-70
2022/08/05 14:15:35;;;;;;;17.15;2.20;;;;;;;;;;5012613;28;20052;-70
2022/08/05 14:18:01;;;;;;;10.45;2.63;;;;;;;;;;5012446;28;20107;-65
2022/08/05 14:20:31;;;;;;;9.45;2.33;;;;;;;;;;4995205;28;20359;-68
2022/08/05 14:22:58;;;;;;;12.07;2.10;;;;;;;;;;5012368;28;20505;-67
2022/08/05 14:25:24;;;;;;;9.98;1.88;;;;;;;;;;4994619;28;20058;-71
2022/08/05 14:27:50;;;;;;;;;;;;;;;;;;5012518;28;20133;-68
2022/08/05 14:30:16;;;;;;;11.00;2.00;;;;;;;;;;5012552;28;20289;-68
2022/08/05 14:32:43;;;;;;;7.63;1.98;;;;;;;;;;5012069;28;20050;-70
2022/08/05 14:35:11;;;;;;;9.20;1.80;;;;;;;;;;5012121;28;20474;-67
2022/08/05 14:37:37;;;;;;;8.23;1.75;;;;;;;;;;4998693;28;20046;-67
2022/08/05 14:40:05;;;;;;;8.80;1.80;;;;;;;;;;5016204;28;20077;-66
2022/08/05 14:42:31;;;;;;;5.90;1.48;;;;;;;;;;5016154;28;20045;-69
2022/08/05 14:44:57;;;;;;;;;;;;;;;;;;5015094;28;20101;-68
2022/08/05 14:47:24;;;;;;;4.95;1.50;;;;;;;;;;5015857;28;19972;-73
2022/08/05 14:49:50;;;;;;;8.07;1.77;;;;;;;;;;4997829;28;20125;-71
2022/08/05 14:52:16;;;;;;;;;;;;;;;;;;5015702;28;20144;-68
2022/08/05 14:54:42;;;;;;;8.90;2.22;;;;;;;;;;5015502;28;19971;-75
2022/08/05 14:57:08;;;;;;;8.40;1.55;;;;;;;;;;5015582;28;20121;-74
2022/08/05 14:59:34;;;;;;;7.55;1.80;;;;;;;;;;5015528;28;20096;-69
2022/08/05 15:02:00;;;;;;;4.80;1.30;;;;;;;;;;5014871;28;20058;-69